Ikan Bagat — 3EYX8 — position and weather

sailwx.info

Track history (hours):
 
Tides and Currents Weather Stations Pressure Air Temp Water Temp Dewpoint Dewpoint Depression Visibility Wind Speed Wind Dir Waves Ship Positions

Ikan Bagat

Last reported at 2016-May-24 13:22 UTC. Time now 2016-May-25 11:03 UTC.
Position N 01°16' E 104°10'.

Length 229 m; draft 13.9 m.

Type: Ship. MMSI: 354375000.

Date/timePositionNaut miles runAvg speedWind from/ knotsBaromVisibWave heightAir tempDewpointWater temp
2016-May-24 13:22N 01°16' E 104°10'8 9.9
2016-May-24 12:33N 01°15' E 104°02'5 5.0
2016-May-24 11:32N 01°16' E 103°58'0 0.3
2016-May-24 10:20N 01°17' E 103°57'0 0.1
2016-May-24 09:23N 01°17' E 103°58'0 0.1
2016-May-24 08:29N 01°17' E 103°58'0 0.1
2016-May-24 07:29N 01°17' E 103°58'0 0.0
2016-May-24 06:23N 01°17' E 103°58'0 0.0
2016-May-24 05:29N 01°17' E 103°58'0 0.0
2016-May-24 04:32N 01°17' E 103°58'0 0.0
2016-May-24 03:32N 01°17' E 103°58'0 0.0
2016-May-24 02:29N 01°17' E 103°58'0 0.0
2016-May-24 01:32N 01°17' E 103°58'0 0.0
2016-May-24 00:32N 01°17' E 103°58'0 0.3
2016-May-23 23:33N 01°17' E 103°58'4 3.8
2016-May-23 22:33N 01°15' E 104°02'4 4.4
2016-May-23 21:33N 01°14' E 103°57'6 5.6
2016-May-23 20:29N 01°12' E 103°52'8510.5
2016-May-23 12:24N 01°45' E 102°34'1112.8
2016-May-23 11:32N 01°49' E 102°24'1212.3
2016-May-23 10:32N 01°54' E 102°13'  
Track history (hours):
 
Tides and Currents Weather Stations Pressure Air Temp Water Temp Dewpoint Dewpoint Depression Visibility Wind Speed Wind Dir Waves Ship Positions

Ikan Bagat

Last reported at 2016-May-24 13:22 UTC. Time now 2016-May-25 11:03 UTC.
Position N 01°16' E 104°10'.

Length 229 m; draft 13.9 m.

Type: Ship. MMSI: 354375000.

Date/timePositionNaut miles runAvg speedWind from/ knotsBaromVisibWave heightAir tempDewpointWater temp
2016-May-24 13:22N 01°16' E 104°10'8 9.9
2016-May-24 12:33N 01°15' E 104°02'5 5.0
2016-May-24 11:32N 01°16' E 103°58'0 0.3
2016-May-24 10:20N 01°17' E 103°57'0 0.1
2016-May-24 09:23N 01°17' E 103°58'0 0.1
2016-May-24 08:29N 01°17' E 103°58'0 0.1
2016-May-24 07:29N 01°17' E 103°58'0 0.0
2016-May-24 06:23N 01°17' E 103°58'0 0.0
2016-May-24 05:29N 01°17' E 103°58'0 0.0
2016-May-24 04:32N 01°17' E 103°58'0 0.0
2016-May-24 03:32N 01°17' E 103°58'0 0.0
2016-May-24 02:29N 01°17' E 103°58'0 0.0
2016-May-24 01:32N 01°17' E 103°58'0 0.0
2016-May-24 00:32N 01°17' E 103°58'0 0.3
2016-May-23 23:33N 01°17' E 103°58'4 3.8
2016-May-23 22:33N 01°15' E 104°02'4 4.4
2016-May-23 21:33N 01°14' E 103°57'6 5.6
2016-May-23 20:29N 01°12' E 103°52'8510.5
2016-May-23 12:24N 01°45' E 102°34'1112.8
2016-May-23 11:32N 01°49' E 102°24'1212.3
2016-May-23 10:32N 01°54' E 102°13'  

Dump ship's entire track history